createdAt,value
2023-02-06T00:01:54.797Z,5.53
2023-02-06T00:04:21.596Z,4.40
2023-02-06T00:06:48.379Z,4.15
2023-02-06T00:09:15.230Z,4.75
2023-02-06T00:11:42.089Z,4.63
2023-02-06T00:14:08.874Z,5.00
2023-02-06T00:16:35.755Z,6.90
2023-02-06T00:19:02.908Z,5.38
2023-02-06T00:21:30.068Z,5.85
2023-02-06T00:23:59.757Z,5.47
2023-02-06T00:26:26.906Z,5.50
2023-02-06T00:28:54.374Z,5.78
2023-02-06T00:31:21.261Z,5.20
2023-02-06T00:33:48.083Z,4.78
2023-02-06T00:36:15.364Z,4.85
2023-02-06T00:38:41.994Z,4.43
2023-02-06T00:41:08.698Z,4.40
2023-02-06T00:43:35.524Z,4.72
2023-02-06T00:46:02.290Z,6.57
2023-02-06T00:48:29.176Z,5.35
2023-02-06T00:50:56.055Z,5.00
2023-02-06T00:53:23.059Z,4.50
2023-02-06T00:55:49.905Z,5.88
2023-02-06T00:58:16.589Z,5.40
2023-02-06T01:00:43.650Z,4.57
2023-02-06T01:03:10.797Z,5.68
2023-02-06T01:05:37.700Z,6.18
2023-02-06T01:08:04.877Z,6.03
2023-02-06T01:10:32.281Z,6.32
2023-02-06T01:12:59.188Z,5.57
2023-02-06T01:15:25.907Z,6.00
2023-02-06T01:17:53.082Z,6.30
2023-02-06T01:20:20.023Z,6.22
2023-02-06T01:22:46.776Z,5.30
2023-02-06T01:25:13.628Z,4.93
2023-02-06T01:27:40.388Z,4.47
2023-02-06T01:30:08.733Z,4.65
2023-02-06T01:32:40.308Z,5.65
2023-02-06T01:35:08.853Z,6.18
2023-02-06T01:37:36.612Z,5.00
2023-02-06T01:40:05.562Z,5.80
2023-02-06T01:42:37.729Z,4.00
2023-02-06T01:45:43.734Z,5.13
2023-02-06T01:48:16.046Z,6.30
2023-02-06T01:50:46.708Z,4.05
2023-02-06T01:55:44.676Z,4.38
2023-02-06T01:58:17.313Z,5.82
2023-02-06T02:00:44.346Z,5.53
2023-02-06T02:03:11.657Z,5.18
2023-02-06T02:05:40.588Z,6.00
2023-02-06T02:08:25.687Z,5.25
2023-02-06T02:10:52.766Z,5.47
2023-02-06T02:13:19.381Z,5.82
2023-02-06T02:15:55.063Z,4.65
2023-02-06T02:18:43.217Z,5.75
2023-02-06T02:21:37.661Z,5.45
2023-02-06T02:24:16.113Z,5.15
2023-02-06T02:27:16.656Z,5.07
2023-02-06T02:30:20.454Z,5.18
2023-02-06T02:32:53.190Z,5.20
2023-02-06T02:35:38.035Z,5.35
2023-02-06T02:38:16.767Z,6.18
2023-02-06T02:40:52.502Z,4.55
2023-02-06T02:43:48.962Z,4.70
2023-02-06T02:46:27.941Z,4.18
2023-02-06T02:49:01.194Z,5.18
2023-02-06T02:51:27.913Z,4.45
2023-02-06T02:53:57.610Z,4.38
2023-02-06T02:56:25.852Z,5.50
2023-02-06T02:59:00.467Z,3.83
2023-02-06T03:01:34.117Z,5.22
2023-02-06T03:04:05.923Z,4.95
2023-02-06T03:06:48.413Z,3.95
2023-02-06T03:09:33.892Z,4.10
2023-02-06T03:12:11.852Z,4.25
2023-02-06T03:14:49.270Z,4.25
2023-02-06T03:17:23.562Z,5.95
2023-02-06T03:19:56.635Z,5.82
2023-02-06T03:22:24.667Z,4.55
2023-02-06T03:24:53.844Z,4.13
2023-02-06T03:27:22.685Z,4.97
2023-02-06T03:29:53.084Z,4.57
2023-02-06T03:32:25.993Z,4.65
2023-02-06T03:35:05.236Z,4.60
2023-02-06T03:37:32.823Z,4.40
2023-02-06T03:40:01.606Z,3.97
2023-02-06T03:42:31.108Z,4.25
2023-02-06T03:45:03.648Z,4.72
2023-02-06T03:47:32.021Z,4.10
2023-02-06T03:50:01.256Z,4.30
2023-02-06T03:52:35.912Z,4.57
2023-02-06T03:55:08.799Z,3.95
2023-02-06T03:57:38.361Z,4.68
2023-02-06T04:00:06.557Z,3.70
2023-02-06T04:02:33.976Z,4.07
2023-02-06T04:05:00.622Z,4.07
2023-02-06T04:07:33.368Z,4.60
2023-02-06T04:10:00.261Z,4.78
2023-02-06T04:12:27.494Z,4.32
2023-02-06T04:14:54.251Z,4.28
2023-02-06T04:17:40.687Z,5.57
2023-02-06T04:20:09.045Z,3.72
2023-02-06T04:22:36.349Z,4.57
2023-02-06T04:25:03.087Z,4.13
2023-02-06T04:27:29.908Z,4.78
2023-02-06T04:29:56.815Z,4.45
2023-02-06T04:32:23.873Z,5.43
2023-02-06T04:34:50.674Z,5.00
2023-02-06T04:37:17.404Z,3.80
2023-02-06T04:39:44.100Z,4.72
2023-02-06T04:42:10.905Z,4.20
2023-02-06T04:44:38.733Z,3.85
2023-02-06T04:47:06.247Z,4.40
2023-02-06T04:49:33.105Z,4.40
2023-02-06T04:51:59.854Z,3.83
2023-02-06T04:54:26.545Z,4.13
2023-02-06T04:56:53.404Z,3.33
2023-02-06T04:59:20.293Z,4.15
2023-02-06T05:01:47.259Z,3.90
2023-02-06T05:04:13.984Z,3.55
2023-02-06T05:06:40.794Z,3.95
2023-02-06T05:09:07.437Z,3.88
2023-02-06T05:11:34.234Z,3.05
2023-02-06T05:14:01.067Z,5.13
2023-02-06T05:16:27.857Z,3.33
2023-02-06T05:18:56.643Z,4.43
2023-02-06T05:21:24.570Z,3.70
2023-02-06T05:23:51.411Z,4.22
2023-02-06T05:26:18.488Z,3.03
2023-02-06T05:28:45.229Z,4.25
2023-02-06T05:31:18.383Z,4.15
2023-02-06T05:33:47.317Z,4.50
2023-02-06T05:36:14.243Z,4.15
2023-02-06T05:38:40.988Z,4.57
2023-02-06T05:41:07.918Z,4.60
2023-02-06T05:43:34.966Z,3.63
2023-02-06T05:46:02.387Z,4.00
2023-02-06T05:48:30.696Z,4.03
2023-02-06T05:50:58.334Z,5.65
2023-02-06T05:53:25.064Z,4.82
2023-02-06T05:55:52.150Z,4.88
2023-02-06T05:58:18.882Z,3.90
2023-02-06T06:00:45.802Z,3.83
2023-02-06T06:03:12.728Z,4.65
2023-02-06T06:05:39.625Z,4.63
2023-02-06T06:08:06.321Z,6.00
2023-02-06T06:10:33.371Z,4.80
2023-02-06T06:13:00.125Z,4.72
2023-02-06T06:15:27.042Z,5.03
2023-02-06T06:17:54.045Z,4.65
2023-02-06T06:20:20.665Z,4.22
2023-02-06T06:22:47.381Z,4.90
2023-02-06T06:25:14.329Z,5.43
2023-02-06T06:27:41.040Z,5.32
2023-02-06T06:30:08.450Z,3.80
2023-02-06T06:32:35.171Z,5.10
2023-02-06T06:35:01.895Z,4.55
2023-02-06T06:37:28.562Z,3.28
2023-02-06T06:39:55.428Z,4.93
2023-02-06T06:42:22.183Z,4.70
2023-02-06T06:44:48.973Z,4.38
2023-02-06T06:47:15.990Z,5.00
2023-02-06T06:49:42.666Z,4.78
2023-02-06T06:52:23.017Z,3.80
2023-02-06T06:54:52.523Z,5.22
2023-02-06T06:57:20.099Z,4.90
2023-02-06T06:59:46.865Z,3.90
2023-02-06T07:02:14.161Z,4.32
2023-02-06T07:04:40.837Z,5.38
2023-02-06T07:07:08.308Z,5.50
2023-02-06T07:09:35.309Z,5.18
2023-02-06T07:12:02.042Z,4.78
2023-02-06T07:14:29.055Z,4.30
2023-02-06T07:16:56.491Z,3.83
2023-02-06T07:19:23.188Z,4.03
2023-02-06T07:21:50.085Z,5.53
2023-02-06T07:24:17.464Z,4.88
2023-02-06T07:26:44.733Z,4.38
2023-02-06T07:29:11.556Z,4.78
2023-02-06T07:31:38.506Z,4.38
2023-02-06T07:34:05.487Z,4.05
2023-02-06T07:36:32.280Z,4.25
2023-02-06T07:38:59.247Z,4.00
2023-02-06T07:41:26.161Z,4.82
2023-02-06T07:43:55.009Z,4.18
2023-02-06T07:46:22.309Z,4.40
2023-02-06T07:48:49.021Z,4.82
2023-02-06T07:51:15.851Z,4.22
2023-02-06T07:53:42.875Z,5.28
2023-02-06T07:56:15.472Z,4.85
2023-02-06T07:58:42.508Z,4.10
2023-02-06T08:01:09.642Z,4.57
2023-02-06T08:03:36.789Z,4.90
2023-02-06T08:06:11.829Z,4.63
2023-02-06T08:08:38.891Z,5.07
2023-02-06T08:11:07.950Z,5.10
2023-02-06T08:13:35.522Z,5.32
2023-02-06T08:16:11.356Z,5.45
2023-02-06T08:18:38.633Z,4.50
2023-02-06T08:21:09.200Z,5.20
2023-02-06T08:23:35.938Z,6.43
2023-02-06T08:26:09.437Z,5.38
2023-02-06T08:28:37.432Z,5.03
2023-02-06T08:31:16.397Z,4.72
2023-02-06T08:33:44.096Z,5.72
2023-02-06T08:36:11.964Z,5.35
2023-02-06T08:38:39.372Z,5.00
2023-02-06T08:41:14.045Z,5.60
2023-02-06T08:43:41.062Z,5.50
2023-02-06T08:46:07.906Z,6.40
2023-02-06T08:48:34.699Z,6.07
2023-02-06T08:51:06.119Z,7.18
2023-02-06T08:53:33.549Z,6.68
2023-02-06T08:56:09.308Z,5.68
2023-02-06T08:58:37.052Z,5.53
2023-02-06T09:01:19.520Z,7.25
2023-02-06T09:03:46.509Z,5.32
2023-02-06T09:06:14.639Z,5.72
2023-02-06T09:08:42.554Z,6.15
2023-02-06T09:11:17.991Z,5.40
2023-02-06T09:13:49.220Z,5.45
2023-02-06T09:16:18.341Z,6.80
2023-02-06T09:18:45.489Z,6.53
2023-02-06T09:21:15.263Z,7.05
2023-02-06T09:23:45.107Z,6.25
2023-02-06T09:26:13.892Z,5.70
2023-02-06T09:28:40.860Z,6.10
2023-02-06T09:31:09.047Z,6.82
2023-02-06T09:33:37.804Z,6.45
2023-02-06T09:36:07.761Z,5.65
2023-02-06T09:38:35.588Z,5.35
2023-02-06T09:41:05.531Z,6.15
2023-02-06T09:43:34.376Z,5.95
2023-02-06T09:46:04.043Z,6.35
2023-02-06T09:48:35.011Z,5.83
2023-02-06T09:51:09.889Z,6.32
2023-02-06T09:53:42.454Z,6.80
2023-02-06T09:56:53.209Z,6.78
2023-02-06T10:01:56.238Z,6.93
2023-02-06T10:04:32.136Z,6.93
2023-02-06T10:07:21.464Z,7.07
2023-02-06T10:09:57.516Z,7.28
2023-02-06T10:12:47.528Z,7.38
2023-02-06T10:15:24.382Z,7.53
2023-02-06T10:18:05.116Z,7.95
2023-02-06T10:20:41.157Z,7.32
2023-02-06T10:23:41.435Z,8.18
2023-02-06T10:26:18.259Z,6.68
2023-02-06T10:28:49.711Z,6.50
2023-02-06T10:31:22.761Z,7.43
2023-02-06T10:34:38.207Z,7.13
2023-02-06T10:37:15.731Z,6.25
2023-02-06T10:39:45.205Z,6.70
2023-02-06T10:42:23.648Z,5.75
2023-02-06T10:44:53.229Z,6.70
2023-02-06T10:47:58.717Z,6.82
2023-02-06T10:50:50.906Z,6.78
2023-02-06T10:53:36.813Z,5.75
2023-02-06T10:56:14.058Z,6.90
2023-02-06T10:58:49.512Z,5.65
2023-02-06T11:01:26.106Z,5.38
2023-02-06T11:04:03.105Z,6.65
2023-02-06T11:06:30.484Z,6.65
2023-02-06T11:08:57.209Z,7.20
2023-02-06T11:11:26.688Z,5.05
2023-02-06T11:14:13.134Z,6.00
2023-02-06T11:16:44.324Z,5.88
2023-02-06T11:19:29.041Z,6.38
2023-02-06T11:21:58.446Z,4.40
2023-02-06T11:24:44.679Z,4.80
2023-02-06T11:29:52.333Z,4.53
2023-02-06T11:32:41.514Z,4.53
2023-02-06T11:35:11.198Z,5.38
2023-02-06T11:37:41.028Z,5.17
2023-02-06T11:40:16.816Z,4.70
2023-02-06T11:42:44.966Z,4.97
2023-02-06T11:45:30.220Z,4.95
2023-02-06T11:47:58.007Z,4.50
2023-02-06T11:50:26.769Z,4.65
2023-02-06T11:53:18.109Z,4.32
2023-02-06T11:55:57.532Z,4.35
2023-02-06T11:58:27.279Z,5.10
2023-02-06T12:00:57.114Z,4.57
2023-02-06T12:03:35.905Z,4.82
2023-02-06T12:06:12.725Z,3.30
2023-02-06T12:08:42.248Z,3.60
2023-02-06T12:11:21.635Z,3.90
2023-02-06T12:13:54.825Z,4.15
2023-02-06T12:16:23.606Z,4.28
2023-02-06T12:18:55.346Z,4.38
2023-02-06T12:21:41.009Z,3.10
2023-02-06T12:24:36.348Z,4.60
2023-02-06T12:27:15.689Z,3.40
2023-02-06T12:29:57.023Z,3.97
2023-02-06T12:32:39.733Z,4.30
2023-02-06T12:35:35.049Z,4.55
2023-02-06T12:38:16.964Z,3.70
2023-02-06T12:40:57.248Z,3.70
2023-02-06T12:43:24.321Z,2.85
2023-02-06T12:45:54.384Z,3.33
2023-02-06T12:48:39.443Z,2.83
2023-02-06T12:51:18.808Z,2.80
2023-02-06T12:54:15.784Z,3.25
2023-02-06T12:56:58.601Z,3.38
2023-02-06T12:59:56.640Z,4.00
2023-02-06T13:03:02.454Z,3.70
2023-02-06T13:05:41.925Z,3.70
2023-02-06T13:56:40.515Z,3.85
2023-02-06T13:59:19.113Z,2.58
2023-02-06T14:01:46.995Z,3.78
2023-02-06T14:04:33.512Z,3.53
2023-02-06T14:07:03.053Z,3.78
2023-02-06T14:10:06.527Z,3.15
2023-02-06T14:12:51.231Z,3.17
2023-02-06T14:15:38.443Z,6.30
2023-02-06T14:18:35.233Z,3.70
2023-02-06T14:21:23.187Z,3.58
2023-02-06T14:23:59.322Z,2.80
2023-02-06T14:26:43.656Z,3.47
2023-02-06T14:29:17.696Z,2.80
2023-02-06T14:32:18.049Z,3.67
2023-02-06T14:34:53.933Z,3.70
2023-02-06T14:37:29.745Z,3.00
2023-02-06T14:40:04.438Z,4.47
2023-02-06T14:42:41.436Z,3.75
2023-02-06T14:45:31.905Z,2.97
2023-02-06T14:48:02.780Z,3.35
2023-02-06T14:50:32.386Z,3.30
2023-02-06T14:53:16.884Z,3.50
2023-02-06T14:55:47.277Z,3.25
2023-02-06T14:58:29.796Z,3.33
2023-02-06T15:01:11.174Z,2.75
2023-02-06T15:03:40.252Z,3.70
2023-02-06T15:06:10.619Z,2.72
2023-02-06T15:08:38.224Z,3.08
2023-02-06T15:11:16.270Z,3.63
2023-02-06T15:13:50.250Z,2.95
2023-02-06T15:16:17.327Z,3.20
2023-02-06T15:18:44.609Z,2.97
2023-02-06T15:21:19.560Z,3.70
2023-02-06T15:24:01.791Z,4.43
2023-02-06T15:26:38.277Z,3.45
2023-02-06T15:29:15.143Z,8.93
2023-02-06T15:31:47.880Z,2.97
2023-02-06T15:34:18.578Z,2.97
2023-02-06T15:36:45.945Z,3.58
2023-02-06T15:39:15.429Z,2.78
2023-02-06T15:41:44.642Z,3.38
2023-02-06T15:44:36.591Z,3.30
2023-02-06T15:47:08.069Z,3.60
2023-02-06T15:49:40.423Z,3.40
2023-02-06T15:52:07.662Z,3.20
2023-02-06T15:54:35.086Z,3.67
2023-02-06T15:57:31.006Z,4.50
2023-02-06T15:59:58.322Z,3.97
2023-02-06T16:02:37.180Z,3.83
2023-02-06T16:05:05.204Z,4.07
2023-02-06T16:07:35.925Z,3.92
2023-02-06T16:10:08.700Z,3.60
2023-02-06T16:12:41.566Z,4.07
2023-02-06T16:15:38.836Z,3.03
2023-02-06T16:18:29.206Z,3.33
2023-02-06T16:21:17.465Z,4.22
2023-02-06T16:23:51.080Z,3.50
2023-02-06T16:26:23.918Z,4.20
2023-02-06T16:28:59.885Z,4.93
2023-02-06T16:31:29.220Z,5.63
2023-02-06T16:34:03.050Z,6.25
2023-02-06T16:36:32.629Z,5.30
2023-02-06T16:39:04.691Z,4.17
2023-02-06T16:41:38.279Z,4.93
2023-02-06T16:44:13.174Z,4.78
2023-02-06T16:46:39.997Z,4.53
2023-02-06T16:49:15.586Z,5.25
2023-02-06T16:51:44.590Z,4.57
2023-02-06T16:54:28.743Z,4.30
2023-02-06T16:56:58.840Z,4.50
2023-02-06T16:59:25.616Z,5.60
2023-02-06T17:01:52.672Z,5.53
2023-02-06T17:04:19.617Z,5.78
2023-02-06T17:06:46.371Z,5.93
2023-02-06T17:09:17.175Z,5.13
2023-02-06T17:11:44.121Z,5.57
2023-02-06T17:14:11.696Z,5.82
2023-02-06T17:16:38.442Z,5.78
2023-02-06T17:19:05.389Z,6.25
2023-02-06T17:21:33.183Z,5.82
2023-02-06T17:24:00.119Z,5.70
2023-02-06T17:26:27.641Z,5.70
2023-02-06T17:28:54.444Z,6.47
2023-02-06T17:31:21.803Z,7.20
2023-02-06T17:33:48.895Z,7.88
2023-02-06T17:36:29.418Z,7.78
2023-02-06T17:41:27.468Z,6.05
2023-02-06T17:43:54.169Z,6.45
2023-02-06T17:46:24.220Z,7.28
2023-02-06T17:48:50.940Z,6.30
2023-02-06T17:51:17.846Z,5.10
2023-02-06T17:53:44.785Z,7.20
2023-02-06T17:56:12.986Z,6.43
2023-02-06T17:58:41.217Z,7.40
2023-02-06T18:01:16.799Z,8.02
2023-02-06T18:03:45.424Z,8.07
2023-02-06T18:06:14.168Z,10.65
2023-02-06T18:08:41.603Z,11.65
2023-02-06T18:11:13.455Z,12.07
2023-02-06T18:13:41.187Z,14.30
2023-02-06T18:16:13.244Z,14.90
2023-02-06T18:18:39.976Z,13.48
2023-02-06T18:21:07.134Z,13.02
2023-02-06T18:23:34.420Z,12.60
2023-02-06T18:26:03.131Z,12.73
2023-02-06T18:28:29.930Z,12.00
2023-02-06T18:30:57.274Z,13.48
2023-02-06T18:33:24.103Z,12.32
2023-02-06T18:35:51.256Z,11.48
2023-02-06T18:38:18.330Z,10.65
2023-02-06T18:40:48.327Z,11.00
2023-02-06T18:43:15.898Z,10.40
2023-02-06T18:45:43.269Z,9.73
2023-02-06T18:48:12.136Z,10.50
2023-02-06T18:50:42.005Z,12.55
2023-02-06T18:53:09.825Z,13.70
2023-02-06T18:55:37.317Z,13.75
2023-02-06T18:58:07.165Z,14.27
2023-02-06T19:00:36.114Z,15.50
2023-02-06T19:03:03.431Z,16.75
2023-02-06T19:05:35.355Z,16.33
2023-02-06T19:08:02.306Z,19.13
2023-02-06T19:10:29.340Z,16.70
2023-02-06T19:12:56.100Z,17.60
2023-02-06T19:15:23.002Z,19.17
2023-02-06T19:17:50.291Z,19.73
2023-02-06T19:20:17.170Z,18.05
2023-02-06T19:22:43.995Z,18.73
2023-02-06T19:25:14.241Z,18.98
2023-02-06T19:30:09.184Z,26.10
2023-02-06T19:32:36.537Z,23.20
2023-02-06T19:35:03.995Z,26.88
2023-02-06T19:37:30.862Z,27.10
2023-02-06T19:39:57.707Z,24.02
2023-02-06T19:42:24.525Z,21.88
2023-02-06T19:44:55.309Z,17.15
2023-02-06T19:47:22.444Z,16.52
2023-02-06T19:49:52.166Z,15.63
2023-02-06T19:52:19.932Z,14.37
2023-02-06T19:54:47.862Z,15.18
2023-02-06T19:57:16.099Z,13.85
2023-02-06T19:59:43.148Z,13.50
2023-02-06T20:02:14.418Z,11.10
2023-02-06T20:04:41.513Z,9.98
2023-02-06T20:07:08.813Z,9.35
2023-02-06T20:09:36.572Z,8.93
2023-02-06T20:12:03.715Z,7.93
2023-02-06T20:14:30.685Z,7.90
2023-02-06T20:16:57.577Z,7.35
2023-02-06T20:19:27.979Z,6.97
2023-02-06T20:21:56.901Z,6.55
2023-02-06T20:24:26.648Z,6.93
2023-02-06T20:26:56.380Z,6.13
2023-02-06T20:29:28.991Z,6.55
2023-02-06T20:31:57.003Z,6.07
2023-02-06T20:34:25.037Z,7.07
2023-02-06T20:36:52.813Z,6.28
2023-02-06T20:39:20.355Z,6.85
2023-02-06T20:41:49.557Z,6.25
2023-02-06T20:44:17.916Z,6.75
2023-02-06T20:46:45.538Z,6.50
2023-02-06T20:49:20.899Z,6.47
2023-02-06T20:51:51.279Z,5.55
2023-02-06T20:54:19.924Z,5.78
2023-02-06T20:56:46.926Z,6.45
2023-02-06T20:59:16.031Z,6.50
2023-02-06T21:01:44.938Z,6.15
2023-02-06T21:04:13.835Z,6.47
2023-02-06T21:06:41.286Z,6.40
2023-02-06T21:09:09.572Z,6.55
2023-02-06T21:11:44.935Z,5.95
2023-02-06T21:14:12.574Z,5.82
2023-02-06T21:16:40.034Z,6.28
2023-02-06T21:19:09.411Z,6.15
2023-02-06T21:21:37.191Z,6.45
2023-02-06T21:24:05.372Z,6.20
2023-02-06T21:26:32.971Z,5.78
2023-02-06T21:29:02.336Z,6.22
2023-02-06T21:31:37.303Z,5.38
2023-02-06T21:34:11.487Z,5.32
2023-02-06T21:36:39.482Z,6.60
2023-02-06T21:39:06.995Z,5.25
2023-02-06T21:41:33.851Z,4.80
2023-02-06T21:44:00.647Z,4.95
2023-02-06T21:46:30.835Z,4.63
2023-02-06T21:48:58.582Z,5.32
2023-02-06T21:51:25.555Z,4.90
2023-02-06T21:53:52.531Z,5.35
2023-02-06T21:56:25.384Z,4.72
2023-02-06T21:58:53.115Z,5.85
2023-02-06T22:01:26.476Z,5.13
2023-02-06T22:03:53.785Z,4.88
2023-02-06T22:06:21.157Z,5.35
2023-02-06T22:08:51.970Z,5.00
2023-02-06T22:11:25.380Z,4.50
2023-02-06T22:13:53.130Z,5.30
2023-02-06T22:16:21.733Z,5.28
2023-02-06T22:18:49.292Z,5.13
2023-02-06T22:21:21.794Z,5.20
2023-02-06T22:23:49.783Z,4.68
2023-02-06T22:26:19.427Z,4.78
2023-02-06T22:28:47.202Z,4.63
2023-02-06T22:31:18.314Z,4.70
2023-02-06T22:33:45.849Z,5.07
2023-02-06T22:36:15.744Z,5.25
2023-02-06T22:38:44.429Z,5.72
2023-02-06T22:41:15.550Z,5.82
2023-02-06T22:43:43.629Z,5.78
2023-02-06T22:46:18.257Z,4.43
2023-02-06T22:48:45.012Z,5.38
2023-02-06T22:51:11.644Z,5.22
2023-02-06T22:53:39.582Z,5.15
2023-02-06T22:56:29.353Z,4.82
2023-02-06T22:59:04.213Z,6.37
2023-02-06T23:01:33.788Z,5.80
2023-02-06T23:04:05.334Z,6.13
2023-02-06T23:06:33.287Z,5.15
2023-02-06T23:09:01.669Z,5.68
2023-02-06T23:11:29.201Z,5.97
2023-02-06T23:13:59.450Z,5.65
2023-02-06T23:16:28.012Z,6.32
2023-02-06T23:18:55.028Z,5.78
2023-02-06T23:21:23.956Z,5.35
2023-02-06T23:23:51.212Z,6.00
2023-02-06T23:26:19.939Z,5.70
2023-02-06T23:28:46.861Z,4.80
2023-02-06T23:31:14.023Z,5.57
2023-02-06T23:33:40.989Z,5.53
2023-02-06T23:36:09.599Z,6.10
2023-02-06T23:38:37.091Z,6.25
2023-02-06T23:41:33.618Z,5.80
2023-02-06T23:44:06.106Z,5.93
2023-02-06T23:46:34.828Z,5.47
2023-02-06T23:49:01.584Z,5.47
2023-02-06T23:51:28.517Z,5.53
2023-02-06T23:53:55.555Z,6.43
2023-02-06T23:56:32.370Z,6.43
2023-02-06T23:59:00.704Z,5.85
